sensor_id;sensor_type;location;lat;lon;timestamp;temperature;humidity
15765;DHT22;7983;50.744;7.086;2022-10-16T00:01:13;17.20;99.90
15765;DHT22;7983;50.744;7.086;2022-10-16T00:03:45;17.20;99.90
15765;DHT22;7983;50.744;7.086;2022-10-16T00:06:11;17.10;99.90
15765;DHT22;7983;50.744;7.086;2022-10-16T00:08:37;17.10;99.90
15765;DHT22;7983;50.744;7.086;2022-10-16T00:13:35;17.10;99.90
15765;DHT22;7983;50.744;7.086;2022-10-16T00:16:01;17.10;99.90
15765;DHT22;7983;50.744;7.086;2022-10-16T00:18:30;17.10;99.90
15765;DHT22;7983;50.744;7.086;2022-10-16T00:21:00;17.10;99.90
15765;DHT22;7983;50.744;7.086;2022-10-16T00:23:26;17.10;99.90
15765;DHT22;7983;50.744;7.086;2022-10-16T00:26:00;17.10;99.90
15765;DHT22;7983;50.744;7.086;2022-10-16T00:28:29;17.10;99.90
15765;DHT22;7983;50.744;7.086;2022-10-16T00:30:58;17.10;99.90
15765;DHT22;7983;50.744;7.086;2022-10-16T00:33:24;17.00;99.90
15765;DHT22;7983;50.744;7.086;2022-10-16T00:35:50;17.00;99.90
15765;DHT22;7983;50.744;7.086;2022-10-16T00:38:16;17.00;99.90
15765;DHT22;7983;50.744;7.086;2022-10-16T00:40:42;17.00;99.90
15765;DHT22;7983;50.744;7.086;2022-10-16T00:48:39;17.00;99.90
15765;DHT22;7983;50.744;7.086;2022-10-16T00:51:05;17.00;99.90
15765;DHT22;7983;50.744;7.086;2022-10-16T00:53:34;17.00;99.90
15765;DHT22;7983;50.744;7.086;2022-10-16T00:56:00;16.90;99.90
15765;DHT22;7983;50.744;7.086;2022-10-16T00:58:29;16.90;99.90
15765;DHT22;7983;50.744;7.086;2022-10-16T01:00:57;16.80;99.90
15765;DHT22;7983;50.744;7.086;2022-10-16T01:03:29;16.80;99.90
15765;DHT22;7983;50.744;7.086;2022-10-16T01:06:21;16.80;99.90
15765;DHT22;7983;50.744;7.086;2022-10-16T01:08:55;16.70;99.90
15765;DHT22;7983;50.744;7.086;2022-10-16T01:11:36;16.70;99.90
15765;DHT22;7983;50.744;7.086;2022-10-16T01:17:08;16.60;99.90
15765;DHT22;7983;50.744;7.086;2022-10-16T01:19:56;16.60;99.90
15765;DHT22;7983;50.744;7.086;2022-10-16T01:22:37;16.60;99.90
15765;DHT22;7983;50.744;7.086;2022-10-16T01:25:07;16.50;99.90
15765;DHT22;7983;50.744;7.086;2022-10-16T01:27:36;16.50;99.90
15765;DHT22;7983;50.744;7.086;2022-10-16T01:30:23;16.50;99.90
15765;DHT22;7983;50.744;7.086;2022-10-16T01:32:55;16.40;99.90
15765;DHT22;7983;50.744;7.086;2022-10-16T01:35:38;16.40;99.90
15765;DHT22;7983;50.744;7.086;2022-10-16T01:40:39;16.30;99.90
15765;DHT22;7983;50.744;7.086;2022-10-16T01:43:17;16.30;99.90
15765;DHT22;7983;50.744;7.086;2022-10-16T01:45:45;16.30;99.90
15765;DHT22;7983;50.744;7.086;2022-10-16T01:48:13;16.20;99.90
15765;DHT22;7983;50.744;7.086;2022-10-16T01:50:42;16.20;99.90
15765;DHT22;7983;50.744;7.086;2022-10-16T01:53:12;16.20;99.90
15765;DHT22;7983;50.744;7.086;2022-10-16T01:55:41;16.10;99.90
15765;DHT22;7983;50.744;7.086;2022-10-16T01:58:12;16.10;99.90
15765;DHT22;7983;50.744;7.086;2022-10-16T02:00:41;16.10;99.90
15765;DHT22;7983;50.744;7.086;2022-10-16T02:03:08;16.00;99.90
15765;DHT22;7983;50.744;7.086;2022-10-16T02:08:07;16.00;99.90
15765;DHT22;7983;50.744;7.086;2022-10-16T02:10:35;16.00;99.90
15765;DHT22;7983;50.744;7.086;2022-10-16T02:13:23;16.10;99.90
15765;DHT22;7983;50.744;7.086;2022-10-16T02:15:51;16.10;99.90
15765;DHT22;7983;50.744;7.086;2022-10-16T02:18:21;16.10;99.90
15765;DHT22;7983;50.744;7.086;2022-10-16T02:21:00;16.20;99.90
15765;DHT22;7983;50.744;7.086;2022-10-16T02:23:50;16.20;99.90
15765;DHT22;7983;50.744;7.086;2022-10-16T02:26:35;16.30;99.90
15765;DHT22;7983;50.744;7.086;2022-10-16T02:29:10;16.30;99.90
15765;DHT22;7983;50.744;7.086;2022-10-16T02:31:42;16.40;99.90
15765;DHT22;7983;50.744;7.086;2022-10-16T02:34:11;16.40;99.90
15765;DHT22;7983;50.744;7.086;2022-10-16T02:36:38;16.40;99.90
15765;DHT22;7983;50.744;7.086;2022-10-16T02:39:05;16.40;99.90
15765;DHT22;7983;50.744;7.086;2022-10-16T02:41:34;16.50;99.90
15765;DHT22;7983;50.744;7.086;2022-10-16T02:43:59;16.50;99.90
15765;DHT22;7983;50.744;7.086;2022-10-16T02:46:25;16.50;99.90
15765;DHT22;7983;50.744;7.086;2022-10-16T02:48:51;16.60;99.90
15765;DHT22;7983;50.744;7.086;2022-10-16T02:51:16;16.60;99.90
15765;DHT22;7983;50.744;7.086;2022-10-16T02:53:46;16.60;99.90
15765;DHT22;7983;50.744;7.086;2022-10-16T02:56:12;16.70;99.90
15765;DHT22;7983;50.744;7.086;2022-10-16T02:58:38;16.70;99.90
15765;DHT22;7983;50.744;7.086;2022-10-16T03:01:03;16.70;99.90
15765;DHT22;7983;50.744;7.086;2022-10-16T03:03:29;16.70;99.90
15765;DHT22;7983;50.744;7.086;2022-10-16T03:05:59;16.80;99.90
15765;DHT22;7983;50.744;7.086;2022-10-16T03:08:25;16.80;99.90
15765;DHT22;7983;50.744;7.086;2022-10-16T03:10:53;16.80;99.90
15765;DHT22;7983;50.744;7.086;2022-10-16T03:13:19;16.80;99.90
15765;DHT22;7983;50.744;7.086;2022-10-16T03:15:48;16.80;99.90
15765;DHT22;7983;50.744;7.086;2022-10-16T03:18:14;16.80;99.90
15765;DHT22;7983;50.744;7.086;2022-10-16T03:20:39;16.80;99.90
15765;DHT22;7983;50.744;7.086;2022-10-16T03:23:05;16.80;99.90
15765;DHT22;7983;50.744;7.086;2022-10-16T03:25:32;16.80;99.90
15765;DHT22;7983;50.744;7.086;2022-10-16T03:27:57;16.80;99.90
15765;DHT22;7983;50.744;7.086;2022-10-16T03:30:23;16.80;99.90
15765;DHT22;7983;50.744;7.086;2022-10-16T03:32:48;16.80;99.90
15765;DHT22;7983;50.744;7.086;2022-10-16T03:35:22;16.80;99.90
15765;DHT22;7983;50.744;7.086;2022-10-16T03:37:51;16.80;99.90
15765;DHT22;7983;50.744;7.086;2022-10-16T03:40:17;16.80;99.90
15765;DHT22;7983;50.744;7.086;2022-10-16T03:42:43;16.80;99.90
15765;DHT22;7983;50.744;7.086;2022-10-16T03:45:10;16.80;99.90
15765;DHT22;7983;50.744;7.086;2022-10-16T03:47:36;16.80;99.90
15765;DHT22;7983;50.744;7.086;2022-10-16T03:50:02;16.80;99.90
15765;DHT22;7983;50.744;7.086;2022-10-16T03:52:31;16.70;99.90
15765;DHT22;7983;50.744;7.086;2022-10-16T03:54:57;16.70;99.90
15765;DHT22;7983;50.744;7.086;2022-10-16T03:57:23;16.70;99.90
15765;DHT22;7983;50.744;7.086;2022-10-16T03:59:48;16.70;99.90
15765;DHT22;7983;50.744;7.086;2022-10-16T04:02:14;16.70;99.90
15765;DHT22;7983;50.744;7.086;2022-10-16T04:04:44;16.70;99.90
15765;DHT22;7983;50.744;7.086;2022-10-16T04:07:10;16.70;99.90
15765;DHT22;7983;50.744;7.086;2022-10-16T04:09:35;16.70;99.90
15765;DHT22;7983;50.744;7.086;2022-10-16T04:12:01;16.70;99.90
15765;DHT22;7983;50.744;7.086;2022-10-16T04:14:29;16.70;99.90
15765;DHT22;7983;50.744;7.086;2022-10-16T04:16:55;16.70;99.90
15765;DHT22;7983;50.744;7.086;2022-10-16T04:19:20;16.70;99.90
15765;DHT22;7983;50.744;7.086;2022-10-16T04:21:46;16.70;99.90
15765;DHT22;7983;50.744;7.086;2022-10-16T04:24:14;16.70;99.90
15765;DHT22;7983;50.744;7.086;2022-10-16T04:26:40;16.70;99.90
15765;DHT22;7983;50.744;7.086;2022-10-16T04:29:07;16.70;99.90
15765;DHT22;7983;50.744;7.086;2022-10-16T04:31:33;16.70;99.90
15765;DHT22;7983;50.744;7.086;2022-10-16T04:33:59;16.70;99.90
15765;DHT22;7983;50.744;7.086;2022-10-16T04:36:25;16.60;99.90
15765;DHT22;7983;50.744;7.086;2022-10-16T04:38:50;16.70;99.90
15765;DHT22;7983;50.744;7.086;2022-10-16T04:41:18;16.70;99.90
15765;DHT22;7983;50.744;7.086;2022-10-16T04:43:43;16.70;99.90
15765;DHT22;7983;50.744;7.086;2022-10-16T04:46:09;16.60;99.90
15765;DHT22;7983;50.744;7.086;2022-10-16T04:48:35;16.70;99.90
15765;DHT22;7983;50.744;7.086;2022-10-16T04:51:01;16.60;99.90
15765;DHT22;7983;50.744;7.086;2022-10-16T04:53:29;16.60;99.90
15765;DHT22;7983;50.744;7.086;2022-10-16T04:55:54;16.60;99.90
15765;DHT22;7983;50.744;7.086;2022-10-16T04:58:21;16.60;99.90
15765;DHT22;7983;50.744;7.086;2022-10-16T05:00:46;16.60;99.90
15765;DHT22;7983;50.744;7.086;2022-10-16T05:03:14;16.60;99.90
15765;DHT22;7983;50.744;7.086;2022-10-16T05:05:46;16.60;99.90
15765;DHT22;7983;50.744;7.086;2022-10-16T05:08:16;16.60;99.90
15765;DHT22;7983;50.744;7.086;2022-10-16T05:10:43;16.60;99.90
15765;DHT22;7983;50.744;7.086;2022-10-16T05:13:09;16.60;99.90
15765;DHT22;7983;50.744;7.086;2022-10-16T05:15:36;16.60;99.90
15765;DHT22;7983;50.744;7.086;2022-10-16T05:18:01;16.60;99.90
15765;DHT22;7983;50.744;7.086;2022-10-16T05:20:27;16.50;99.90
15765;DHT22;7983;50.744;7.086;2022-10-16T05:22:53;16.50;99.90
15765;DHT22;7983;50.744;7.086;2022-10-16T05:25:18;16.50;99.90
15765;DHT22;7983;50.744;7.086;2022-10-16T05:27:49;16.50;99.90
15765;DHT22;7983;50.744;7.086;2022-10-16T05:30:15;16.50;99.90
15765;DHT22;7983;50.744;7.086;2022-10-16T05:32:50;16.50;99.90
15765;DHT22;7983;50.744;7.086;2022-10-16T05:35:17;16.50;99.90
15765;DHT22;7983;50.744;7.086;2022-10-16T05:37:45;16.50;99.90
15765;DHT22;7983;50.744;7.086;2022-10-16T05:40:14;16.50;99.90
15765;DHT22;7983;50.744;7.086;2022-10-16T05:42:40;16.50;99.90
15765;DHT22;7983;50.744;7.086;2022-10-16T05:45:07;16.50;99.90
15765;DHT22;7983;50.744;7.086;2022-10-16T05:47:35;16.50;99.90
15765;DHT22;7983;50.744;7.086;2022-10-16T05:50:02;16.50;99.90
15765;DHT22;7983;50.744;7.086;2022-10-16T05:52:34;16.50;99.90
15765;DHT22;7983;50.744;7.086;2022-10-16T05:54:59;16.50;99.90
15765;DHT22;7983;50.744;7.086;2022-10-16T05:57:25;16.50;99.90
15765;DHT22;7983;50.744;7.086;2022-10-16T05:59:53;16.50;99.90
15765;DHT22;7983;50.744;7.086;2022-10-16T06:02:21;16.50;99.90
15765;DHT22;7983;50.744;7.086;2022-10-16T06:04:49;16.50;99.90
15765;DHT22;7983;50.744;7.086;2022-10-16T06:07:16;16.50;99.90
15765;DHT22;7983;50.744;7.086;2022-10-16T06:09:42;16.60;99.90
15765;DHT22;7983;50.744;7.086;2022-10-16T06:12:09;16.60;99.90
15765;DHT22;7983;50.744;7.086;2022-10-16T06:14:35;16.60;99.90
15765;DHT22;7983;50.744;7.086;2022-10-16T06:17:01;16.60;99.90
15765;DHT22;7983;50.744;7.086;2022-10-16T06:19:26;16.60;99.90
15765;DHT22;7983;50.744;7.086;2022-10-16T06:21:54;16.60;99.90
15765;DHT22;7983;50.744;7.086;2022-10-16T06:24:20;16.60;99.90
15765;DHT22;7983;50.744;7.086;2022-10-16T06:26:48;16.60;99.90
15765;DHT22;7983;50.744;7.086;2022-10-16T06:29:16;16.60;99.90
15765;DHT22;7983;50.744;7.086;2022-10-16T06:31:44;16.60;99.90
15765;DHT22;7983;50.744;7.086;2022-10-16T06:34:10;16.60;99.90
15765;DHT22;7983;50.744;7.086;2022-10-16T06:36:37;16.60;99.90
15765;DHT22;7983;50.744;7.086;2022-10-16T06:39:06;16.60;99.90
15765;DHT22;7983;50.744;7.086;2022-10-16T06:41:34;16.60;99.90
15765;DHT22;7983;50.744;7.086;2022-10-16T06:44:00;16.50;99.90
15765;DHT22;7983;50.744;7.086;2022-10-16T06:46:29;16.50;99.90
15765;DHT22;7983;50.744;7.086;2022-10-16T06:48:54;16.50;99.90
15765;DHT22;7983;50.744;7.086;2022-10-16T06:51:24;16.50;99.90
15765;DHT22;7983;50.744;7.086;2022-10-16T06:53:54;16.50;99.90
15765;DHT22;7983;50.744;7.086;2022-10-16T06:56:26;16.50;99.90
15765;DHT22;7983;50.744;7.086;2022-10-16T06:58:59;16.50;99.90
15765;DHT22;7983;50.744;7.086;2022-10-16T07:01:25;16.50;99.90
15765;DHT22;7983;50.744;7.086;2022-10-16T07:03:52;16.50;99.90
15765;DHT22;7983;50.744;7.086;2022-10-16T07:06:19;16.60;99.90
15765;DHT22;7983;50.744;7.086;2022-10-16T07:08:46;16.60;99.90
15765;DHT22;7983;50.744;7.086;2022-10-16T07:11:15;16.60;99.90
15765;DHT22;7983;50.744;7.086;2022-10-16T07:13:42;16.60;99.90
15765;DHT22;7983;50.744;7.086;2022-10-16T07:16:11;16.60;99.90
15765;DHT22;7983;50.744;7.086;2022-10-16T07:18:38;16.60;99.90
15765;DHT22;7983;50.744;7.086;2022-10-16T07:23:36;16.70;99.90
15765;DHT22;7983;50.744;7.086;2022-10-16T07:26:03;16.70;99.90
15765;DHT22;7983;50.744;7.086;2022-10-16T07:28:28;16.70;99.90
15765;DHT22;7983;50.744;7.086;2022-10-16T07:30:55;16.80;99.90
15765;DHT22;7983;50.744;7.086;2022-10-16T07:33:21;16.80;99.90
15765;DHT22;7983;50.744;7.086;2022-10-16T07:35:51;16.80;99.90
15765;DHT22;7983;50.744;7.086;2022-10-16T07:38:17;16.80;99.90
15765;DHT22;7983;50.744;7.086;2022-10-16T07:40:45;16.90;99.90
15765;DHT22;7983;50.744;7.086;2022-10-16T07:43:14;16.90;99.90
15765;DHT22;7983;50.744;7.086;2022-10-16T07:45:49;16.90;99.90
15765;DHT22;7983;50.744;7.086;2022-10-16T07:48:16;17.00;99.90
15765;DHT22;7983;50.744;7.086;2022-10-16T07:50:47;17.00;99.90
15765;DHT22;7983;50.744;7.086;2022-10-16T07:53:13;17.00;99.90
15765;DHT22;7983;50.744;7.086;2022-10-16T07:55:39;17.10;99.90
15765;DHT22;7983;50.744;7.086;2022-10-16T07:58:05;17.10;99.90
15765;DHT22;7983;50.744;7.086;2022-10-16T08:00:32;17.10;99.90
15765;DHT22;7983;50.744;7.086;2022-10-16T08:02:58;17.10;99.90
15765;DHT22;7983;50.744;7.086;2022-10-16T08:05:31;17.10;99.90
15765;DHT22;7983;50.744;7.086;2022-10-16T08:07:57;17.10;99.90
15765;DHT22;7983;50.744;7.086;2022-10-16T08:10:25;17.20;99.90
15765;DHT22;7983;50.744;7.086;2022-10-16T08:12:53;17.20;99.90
15765;DHT22;7983;50.744;7.086;2022-10-16T08:15:19;17.20;99.90
15765;DHT22;7983;50.744;7.086;2022-10-16T08:17:55;17.20;99.90
15765;DHT22;7983;50.744;7.086;2022-10-16T08:20:21;17.20;99.90
15765;DHT22;7983;50.744;7.086;2022-10-16T08:22:47;17.20;99.90
15765;DHT22;7983;50.744;7.086;2022-10-16T08:25:12;17.20;99.90
15765;DHT22;7983;50.744;7.086;2022-10-16T08:27:38;17.20;99.90
15765;DHT22;7983;50.744;7.086;2022-10-16T08:30:06;17.20;99.90
15765;DHT22;7983;50.744;7.086;2022-10-16T08:32:32;17.20;99.90
15765;DHT22;7983;50.744;7.086;2022-10-16T08:34:58;17.30;99.90
15765;DHT22;7983;50.744;7.086;2022-10-16T08:37:30;17.30;99.90
15765;DHT22;7983;50.744;7.086;2022-10-16T08:39:56;17.40;99.90
15765;DHT22;7983;50.744;7.086;2022-10-16T08:42:44;17.40;99.90
15765;DHT22;7983;50.744;7.086;2022-10-16T08:50:50;17.60;99.90
15765;DHT22;7983;50.744;7.086;2022-10-16T08:53:27;17.70;99.90
15765;DHT22;7983;50.744;7.086;2022-10-16T08:55:57;17.70;99.90
15765;DHT22;7983;50.744;7.086;2022-10-16T08:58:28;17.80;99.90
15765;DHT22;7983;50.744;7.086;2022-10-16T09:01:11;17.80;99.90
15765;DHT22;7983;50.744;7.086;2022-10-16T09:11:50;18.00;99.90
15765;DHT22;7983;50.744;7.086;2022-10-16T09:17:03;18.20;99.90
15765;DHT22;7983;50.744;7.086;2022-10-16T09:19:39;18.40;99.90
15765;DHT22;7983;50.744;7.086;2022-10-16T09:22:15;18.60;99.90
15765;DHT22;7983;50.744;7.086;2022-10-16T09:24:41;19.10;99.90
15765;DHT22;7983;50.744;7.086;2022-10-16T09:27:12;19.70;99.90
15765;DHT22;7983;50.744;7.086;2022-10-16T09:29:38;20.50;99.90
15765;DHT22;7983;50.744;7.086;2022-10-16T09:32:16;21.30;99.90
15765;DHT22;7983;50.744;7.086;2022-10-16T09:34:47;22.00;99.90
15765;DHT22;7983;50.744;7.086;2022-10-16T09:37:20;22.60;99.90
15765;DHT22;7983;50.744;7.086;2022-10-16T09:39:51;23.00;99.90
15765;DHT22;7983;50.744;7.086;2022-10-16T09:44:49;23.90;99.90
15765;DHT22;7983;50.744;7.086;2022-10-16T09:47:23;24.10;99.90
15765;DHT22;7983;50.744;7.086;2022-10-16T09:52:25;24.50;99.90
15765;DHT22;7983;50.744;7.086;2022-10-16T09:55:14;24.70;99.90
15765;DHT22;7983;50.744;7.086;2022-10-16T09:57:51;24.90;99.90
15765;DHT22;7983;50.744;7.086;2022-10-16T10:00:17;24.90;99.90
15765;DHT22;7983;50.744;7.086;2022-10-16T10:02:45;24.80;99.90
15765;DHT22;7983;50.744;7.086;2022-10-16T10:05:28;24.70;99.90
15765;DHT22;7983;50.744;7.086;2022-10-16T10:10:31;24.60;99.90
15765;DHT22;7983;50.744;7.086;2022-10-16T10:12:57;24.50;99.90
15765;DHT22;7983;50.744;7.086;2022-10-16T10:15:24;24.40;99.90
15765;DHT22;7983;50.744;7.086;2022-10-16T10:17:57;24.40;99.90
15765;DHT22;7983;50.744;7.086;2022-10-16T10:20:34;24.30;99.90
15765;DHT22;7983;50.744;7.086;2022-10-16T10:23:13;24.20;99.90
15765;DHT22;7983;50.744;7.086;2022-10-16T10:33:38;24.10;99.90
15765;DHT22;7983;50.744;7.086;2022-10-16T10:39:07;24.40;99.90
15765;DHT22;7983;50.744;7.086;2022-10-16T10:55:09;24.30;99.90
15765;DHT22;7983;50.744;7.086;2022-10-16T11:06:20;24.30;99.90
15765;DHT22;7983;50.744;7.086;2022-10-16T11:09:10;24.40;99.90
15765;DHT22;7983;50.744;7.086;2022-10-16T11:11:38;24.50;99.90
15765;DHT22;7983;50.744;7.086;2022-10-16T11:14:11;24.60;99.90
15765;DHT22;7983;50.744;7.086;2022-10-16T11:16:43;24.70;99.90
15765;DHT22;7983;50.744;7.086;2022-10-16T11:19:28;24.70;99.90
15765;DHT22;7983;50.744;7.086;2022-10-16T11:24:53;24.80;99.90
15765;DHT22;7983;50.744;7.086;2022-10-16T11:27:36;24.80;99.90
15765;DHT22;7983;50.744;7.086;2022-10-16T11:30:16;24.80;99.90
15765;DHT22;7983;50.744;7.086;2022-10-16T11:35:38;24.70;99.90
15765;DHT22;7983;50.744;7.086;2022-10-16T11:38:12;24.70;99.90
15765;DHT22;7983;50.744;7.086;2022-10-16T11:40:43;24.70;99.90
15765;DHT22;7983;50.744;7.086;2022-10-16T11:43:22;24.90;99.90
15765;DHT22;7983;50.744;7.086;2022-10-16T11:45:54;25.00;99.90
15765;DHT22;7983;50.744;7.086;2022-10-16T11:56:55;25.60;99.90
15765;DHT22;7983;50.744;7.086;2022-10-16T12:04:54;25.10;99.90
15765;DHT22;7983;50.744;7.086;2022-10-16T12:07:30;24.80;99.90
15765;DHT22;7983;50.744;7.086;2022-10-16T12:09:58;24.50;99.90
15765;DHT22;7983;50.744;7.086;2022-10-16T12:15:27;24.10;99.90
15765;DHT22;7983;50.744;7.086;2022-10-16T12:17:56;23.90;99.90
15765;DHT22;7983;50.744;7.086;2022-10-16T12:20:33;23.70;99.90
15765;DHT22;7983;50.744;7.086;2022-10-16T12:23:04;23.60;99.90
15765;DHT22;7983;50.744;7.086;2022-10-16T12:25:40;23.50;99.90
15765;DHT22;7983;50.744;7.086;2022-10-16T12:30:41;23.60;99.90
15765;DHT22;7983;50.744;7.086;2022-10-16T12:33:28;23.50;99.90
15765;DHT22;7983;50.744;7.086;2022-10-16T12:35:55;23.50;99.90
15765;DHT22;7983;50.744;7.086;2022-10-16T12:38:46;23.40;99.90
15765;DHT22;7983;50.744;7.086;2022-10-16T12:41:12;23.40;99.90
15765;DHT22;7983;50.744;7.086;2022-10-16T12:43:44;23.30;99.90
15765;DHT22;7983;50.744;7.086;2022-10-16T12:48:41;23.10;99.90
15765;DHT22;7983;50.744;7.086;2022-10-16T13:03:00;23.30;99.90
15765;DHT22;7983;50.744;7.086;2022-10-16T13:19:29;24.00;99.90
15765;DHT22;7983;50.744;7.086;2022-10-16T13:28:01;23.70;99.90
15765;DHT22;7983;50.744;7.086;2022-10-16T13:30:29;23.60;99.90
15765;DHT22;7983;50.744;7.086;2022-10-16T13:33:13;23.50;99.90
15765;DHT22;7983;50.744;7.086;2022-10-16T13:35:51;23.40;99.90
15765;DHT22;7983;50.744;7.086;2022-10-16T13:38:19;23.30;99.90
15765;DHT22;7983;50.744;7.086;2022-10-16T13:43:44;23.10;99.90
15765;DHT22;7983;50.744;7.086;2022-10-16T13:46:20;23.00;99.90
15765;DHT22;7983;50.744;7.086;2022-10-16T13:49:03;23.00;99.90
15765;DHT22;7983;50.744;7.086;2022-10-16T13:51:34;23.00;99.90
15765;DHT22;7983;50.744;7.086;2022-10-16T13:54:02;23.00;99.90
15765;DHT22;7983;50.744;7.086;2022-10-16T13:56:32;23.00;99.90
15765;DHT22;7983;50.744;7.086;2022-10-16T13:59:04;23.10;99.90
15765;DHT22;7983;50.744;7.086;2022-10-16T14:01:43;23.20;99.90
15765;DHT22;7983;50.744;7.086;2022-10-16T14:04:13;23.40;99.90
15765;DHT22;7983;50.744;7.086;2022-10-16T14:06:43;23.60;99.90
15765;DHT22;7983;50.744;7.086;2022-10-16T14:09:19;23.70;99.90
15765;DHT22;7983;50.744;7.086;2022-10-16T14:11:49;23.70;99.90
15765;DHT22;7983;50.744;7.086;2022-10-16T14:14:20;23.60;99.90
15765;DHT22;7983;50.744;7.086;2022-10-16T14:16:46;23.60;99.90
15765;DHT22;7983;50.744;7.086;2022-10-16T14:19:27;23.50;99.90
15765;DHT22;7983;50.744;7.086;2022-10-16T14:21:55;23.40;99.90
15765;DHT22;7983;50.744;7.086;2022-10-16T14:24:32;23.30;99.90
15765;DHT22;7983;50.744;7.086;2022-10-16T14:27:01;23.30;99.90
15765;DHT22;7983;50.744;7.086;2022-10-16T14:29:29;23.20;99.90
15765;DHT22;7983;50.744;7.086;2022-10-16T14:32:02;23.10;99.90
15765;DHT22;7983;50.744;7.086;2022-10-16T14:37:05;22.90;99.90
15765;DHT22;7983;50.744;7.086;2022-10-16T14:39:34;22.80;99.90
15765;DHT22;7983;50.744;7.086;2022-10-16T14:42:03;22.80;99.90
15765;DHT22;7983;50.744;7.086;2022-10-16T14:44:32;22.70;99.90
15765;DHT22;7983;50.744;7.086;2022-10-16T14:47:13;22.70;99.90
15765;DHT22;7983;50.744;7.086;2022-10-16T14:49:41;22.70;99.90
15765;DHT22;7983;50.744;7.086;2022-10-16T14:52:13;22.70;99.90
15765;DHT22;7983;50.744;7.086;2022-10-16T14:54:42;22.70;99.90
15765;DHT22;7983;50.744;7.086;2022-10-16T14:57:23;22.70;99.90
15765;DHT22;7983;50.744;7.086;2022-10-16T14:59:54;22.60;99.90
15765;DHT22;7983;50.744;7.086;2022-10-16T15:04:54;22.50;99.90
15765;DHT22;7983;50.744;7.086;2022-10-16T15:07:19;22.40;99.90
15765;DHT22;7983;50.744;7.086;2022-10-16T15:09:50;22.30;99.90
15765;DHT22;7983;50.744;7.086;2022-10-16T15:12:16;22.30;99.90
15765;DHT22;7983;50.744;7.086;2022-10-16T15:14:45;22.30;99.90
15765;DHT22;7983;50.744;7.086;2022-10-16T15:17:11;22.20;99.90
15765;DHT22;7983;50.744;7.086;2022-10-16T15:19:42;22.20;99.90
15765;DHT22;7983;50.744;7.086;2022-10-16T15:22:11;22.10;99.90
15765;DHT22;7983;50.744;7.086;2022-10-16T15:24:41;22.10;99.90
15765;DHT22;7983;50.744;7.086;2022-10-16T15:27:07;22.00;99.90
15765;DHT22;7983;50.744;7.086;2022-10-16T15:29:35;22.00;99.90
15765;DHT22;7983;50.744;7.086;2022-10-16T15:32:03;21.90;99.90
15765;DHT22;7983;50.744;7.086;2022-10-16T15:34:31;21.90;99.90
15765;DHT22;7983;50.744;7.086;2022-10-16T15:36:56;21.90;99.90
15765;DHT22;7983;50.744;7.086;2022-10-16T15:39:23;21.80;99.90
15765;DHT22;7983;50.744;7.086;2022-10-16T15:41:51;21.80;99.90
15765;DHT22;7983;50.744;7.086;2022-10-16T15:44:21;21.80;99.90
15765;DHT22;7983;50.744;7.086;2022-10-16T15:46:48;21.80;99.90
15765;DHT22;7983;50.744;7.086;2022-10-16T15:49:14;21.70;99.90
15765;DHT22;7983;50.744;7.086;2022-10-16T15:51:41;21.70;99.90
15765;DHT22;7983;50.744;7.086;2022-10-16T15:54:07;21.60;99.90
15765;DHT22;7983;50.744;7.086;2022-10-16T15:56:37;21.60;99.90
15765;DHT22;7983;50.744;7.086;2022-10-16T15:59:03;21.60;99.90
15765;DHT22;7983;50.744;7.086;2022-10-16T16:01:35;21.60;99.90
15765;DHT22;7983;50.744;7.086;2022-10-16T16:04:06;21.60;99.90
15765;DHT22;7983;50.744;7.086;2022-10-16T16:06:31;21.50;99.90
15765;DHT22;7983;50.744;7.086;2022-10-16T16:08:58;21.50;99.90
15765;DHT22;7983;50.744;7.086;2022-10-16T16:11:25;21.50;99.90
15765;DHT22;7983;50.744;7.086;2022-10-16T16:13:50;21.50;99.90
15765;DHT22;7983;50.744;7.086;2022-10-16T16:16:20;21.50;99.90
15765;DHT22;7983;50.744;7.086;2022-10-16T16:18:52;21.40;99.90
15765;DHT22;7983;50.744;7.086;2022-10-16T16:21:18;21.50;99.90
15765;DHT22;7983;50.744;7.086;2022-10-16T16:23:47;21.40;99.90
15765;DHT22;7983;50.744;7.086;2022-10-16T16:26:25;21.40;99.90
15765;DHT22;7983;50.744;7.086;2022-10-16T16:29:18;21.40;99.90
15765;DHT22;7983;50.744;7.086;2022-10-16T16:31:47;21.30;99.90
15765;DHT22;7983;50.744;7.086;2022-10-16T16:34:25;21.20;99.90
15765;DHT22;7983;50.744;7.086;2022-10-16T16:36:51;21.20;99.90
15765;DHT22;7983;50.744;7.086;2022-10-16T16:39:17;21.20;99.90
15765;DHT22;7983;50.744;7.086;2022-10-16T16:41:45;21.10;99.90
15765;DHT22;7983;50.744;7.086;2022-10-16T16:44:16;21.10;99.90
15765;DHT22;7983;50.744;7.086;2022-10-16T16:46:44;21.00;99.90
15765;DHT22;7983;50.744;7.086;2022-10-16T16:49:12;21.00;99.90
15765;DHT22;7983;50.744;7.086;2022-10-16T16:51:38;21.00;99.90
15765;DHT22;7983;50.744;7.086;2022-10-16T16:54:07;20.90;99.90
15765;DHT22;7983;50.744;7.086;2022-10-16T16:56:34;20.90;99.90
15765;DHT22;7983;50.744;7.086;2022-10-16T16:59:02;20.90;99.90
15765;DHT22;7983;50.744;7.086;2022-10-16T17:01:30;20.90;99.90
15765;DHT22;7983;50.744;7.086;2022-10-16T17:03:57;20.80;99.90
15765;DHT22;7983;50.744;7.086;2022-10-16T17:06:28;20.80;99.90
15765;DHT22;7983;50.744;7.086;2022-10-16T17:09:00;20.80;99.90
15765;DHT22;7983;50.744;7.086;2022-10-16T17:11:26;20.70;99.90
15765;DHT22;7983;50.744;7.086;2022-10-16T17:13:54;20.70;99.90
15765;DHT22;7983;50.744;7.086;2022-10-16T17:16:22;20.70;99.90
15765;DHT22;7983;50.744;7.086;2022-10-16T17:18:52;20.70;99.90
15765;DHT22;7983;50.744;7.086;2022-10-16T17:21:21;20.60;99.90
15765;DHT22;7983;50.744;7.086;2022-10-16T17:23:51;20.60;99.90
15765;DHT22;7983;50.744;7.086;2022-10-16T17:26:17;20.50;99.90
15765;DHT22;7983;50.744;7.086;2022-10-16T17:28:45;20.50;99.90
15765;DHT22;7983;50.744;7.086;2022-10-16T17:31:14;20.50;99.90
15765;DHT22;7983;50.744;7.086;2022-10-16T17:33:43;20.50;99.90
15765;DHT22;7983;50.744;7.086;2022-10-16T17:36:12;20.50;99.90
15765;DHT22;7983;50.744;7.086;2022-10-16T17:38:40;20.40;99.90
15765;DHT22;7983;50.744;7.086;2022-10-16T17:43:38;20.40;99.90
15765;DHT22;7983;50.744;7.086;2022-10-16T17:46:12;20.40;99.90
15765;DHT22;7983;50.744;7.086;2022-10-16T17:48:46;20.40;99.90
15765;DHT22;7983;50.744;7.086;2022-10-16T17:51:21;20.30;99.90
15765;DHT22;7983;50.744;7.086;2022-10-16T17:53:52;20.30;99.90
15765;DHT22;7983;50.744;7.086;2022-10-16T17:56:25;20.30;99.90
15765;DHT22;7983;50.744;7.086;2022-10-16T17:58:55;20.30;99.90
15765;DHT22;7983;50.744;7.086;2022-10-16T18:01:34;20.20;99.90
15765;DHT22;7983;50.744;7.086;2022-10-16T18:04:02;20.20;99.90
15765;DHT22;7983;50.744;7.086;2022-10-16T18:06:36;20.20;99.90
15765;DHT22;7983;50.744;7.086;2022-10-16T18:09:06;20.20;99.90
15765;DHT22;7983;50.744;7.086;2022-10-16T18:11:33;20.20;99.90
15765;DHT22;7983;50.744;7.086;2022-10-16T18:14:04;20.10;99.90
15765;DHT22;7983;50.744;7.086;2022-10-16T18:16:30;20.10;99.90
15765;DHT22;7983;50.744;7.086;2022-10-16T18:18:59;20.10;99.90
15765;DHT22;7983;50.744;7.086;2022-10-16T18:21:50;20.10;99.90
15765;DHT22;7983;50.744;7.086;2022-10-16T18:24:16;20.10;99.90
15765;DHT22;7983;50.744;7.086;2022-10-16T18:26:47;20.10;99.90